Time;durP1;ratioP1;P1;durP2;ratioP2;P2;SDS_P1;SDS_P2;PMS_P1;PMS_P2;Temp;Humidity;BMP_temperature;BMP_pressure;BME280_temperature;BME280_humidity;BME280_pressure;Samples;Min_cycle;Max_cycle;Signal;HPM_P1;HPM_P2
2022/03/23 00:01:59;;;;;;;;;;;4.70;63.90;;;;;;5037773;28;19924;-72
2022/03/23 00:04:24;;;;;;;;;;;4.70;66.90;;;;;;5023000;28;19952;-72
2022/03/23 00:06:50;;;;;;;;;;;4.70;71.10;;;;;;5025825;28;19979;-75
2022/03/23 00:09:16;;;;;;;;;;;4.70;72.80;;;;;;5041069;28;19909;-72
2022/03/23 00:11:41;;;;;;;;;;;4.60;73.00;;;;;;5037587;28;19984;-72
2022/03/23 00:14:09;;;;;;;;;;;4.40;73.40;;;;;;5041533;28;19909;-73
2022/03/23 00:16:38;;;;;;;;;;;4.50;72.60;;;;;;5026160;28;19909;-73
2022/03/23 00:19:04;;;;;;;;;;;4.30;72.20;;;;;;5041335;28;19917;-72
2022/03/23 00:21:30;;;;;;;;;;;4.40;70.90;;;;;;5024691;28;19984;-72
2022/03/23 00:23:56;;;;;;;;;;;4.20;71.60;;;;;;5025952;28;19913;-73
2022/03/23 00:26:22;;;;;;;;;;;4.10;72.30;;;;;;5025325;28;19909;-73
2022/03/23 00:28:48;;;;;;;;;;;4.10;73.20;;;;;;5025918;28;19916;-74
2022/03/23 00:31:14;;;;;;;;;;;4.00;73.40;;;;;;5025638;28;19992;-73
2022/03/23 00:33:40;;;;;;;;;;;4.10;73.80;;;;;;5025921;28;19910;-74
2022/03/23 00:36:06;;;;;;;;;;;4.00;74.10;;;;;;5025888;28;20255;-73
2022/03/23 00:38:32;;;;;;;;;;;4.00;74.20;;;;;;5024656;28;20220;-74
2022/03/23 00:40:58;;;;;;;;;;;4.00;74.20;;;;;;5024844;28;19916;-74
2022/03/23 00:43:24;;;;;;;;;;;4.00;73.50;;;;;;5040882;28;19917;-74
2022/03/23 00:45:49;;;;;;;;;;;4.10;72.40;;;;;;5025634;28;19964;-74
2022/03/23 00:48:15;;;;;;;;;;;4.00;71.90;;;;;;5025573;28;19916;-73
2022/03/23 00:50:41;;;;;;;;;;;3.90;72.40;;;;;;5025346;28;19909;-73
2022/03/23 00:53:06;;;;;;;;;;;3.90;72.30;;;;;;5040911;28;20256;-73
2022/03/23 00:55:32;;;;;;;;;;;3.80;72.10;;;;;;5040881;28;19956;-72
2022/03/23 00:57:58;;;;;;;;;;;3.70;72.40;;;;;;5024033;28;19918;-73
2022/03/23 01:00:24;;;;;;;;;;;3.60;72.60;;;;;;5025419;28;19984;-73
2022/03/23 01:02:49;;;;;;;;;;;3.50;72.30;;;;;;5025155;28;20089;-73
2022/03/23 01:05:16;;;;;;;;;;;3.50;72.30;;;;;;5025238;28;19925;-72
2022/03/23 01:07:42;;;;;;;;;;;3.50;71.90;;;;;;5025201;28;19972;-73
2022/03/23 01:10:12;;;;;;;;;;;3.60;71.80;;;;;;5024226;28;19913;-73
2022/03/23 01:12:39;;;;;;;;;;;3.60;72.40;;;;;;5024692;28;19909;-72
2022/03/23 01:15:06;;;;;;;;;;;3.50;72.20;;;;;;5040582;28;19913;-73
2022/03/23 01:17:32;;;;;;;;;;;3.40;72.40;;;;;;5023877;28;19909;-74
2022/03/23 01:19:58;;;;;;;;;;;3.50;72.20;;;;;;5025056;28;19948;-73
2022/03/23 01:22:24;;;;;;;;;;;3.50;72.20;;;;;;5024051;28;19918;-74
2022/03/23 01:24:49;;;;;;;;;;;3.50;72.10;;;;;;5024984;28;19913;-74
2022/03/23 01:27:15;;;;;;;;;;;3.50;72.20;;;;;;5039962;28;19948;-74
2022/03/23 01:29:41;;;;;;;;;;;3.50;72.70;;;;;;5024914;28;19909;-74
2022/03/23 01:32:08;;;;;;;;;;;3.40;72.90;;;;;;5039940;28;19977;-74
2022/03/23 01:34:34;;;;;;;;;;;3.30;72.80;;;;;;5039916;28;19924;-74
2022/03/23 01:36:59;;;;;;;;;;;3.30;73.00;;;;;;5024565;28;19949;-74
2022/03/23 01:39:25;;;;;;;;;;;3.20;73.20;;;;;;5023809;28;19916;-74
2022/03/23 01:41:51;;;;;;;;;;;3.20;73.40;;;;;;5002717;28;19910;-74
2022/03/23 01:44:24;;;;;;;;;;;3.30;72.80;;;;;;5004999;28;20234;-71
2022/03/23 01:47:02;;;;;;;;;;;3.00;72.80;;;;;;5020101;28;19916;-71
2022/03/23 01:49:27;;;;;;;;;;;2.90;73.20;;;;;;5004855;28;19913;-71
2022/03/23 01:51:53;;;;;;;;;;;2.80;73.50;;;;;;5019773;28;19956;-71
2022/03/23 01:54:19;;;;;;;;;;;2.80;73.90;;;;;;5004762;28;19918;-71
2022/03/23 01:56:45;;;;;;;;;;;2.80;74.00;;;;;;5019578;28;19910;-71
2022/03/23 01:59:10;;;;;;;;;;;2.70;73.90;;;;;;5004552;28;19909;-71
2022/03/23 02:01:37;;;;;;;;;;;2.80;73.40;;;;;;5019589;28;19988;-71
2022/03/23 02:04:03;;;;;;;;;;;2.70;73.70;;;;;;5019677;28;19922;-71
2022/03/23 02:06:29;;;;;;;;;;;2.60;74.20;;;;;;5004595;28;19964;-71
2022/03/23 02:08:54;;;;;;;;;;;2.40;75.50;;;;;;5019785;28;19910;-71
2022/03/23 02:11:20;;;;;;;;;;;2.40;76.00;;;;;;5006680;28;19910;-71
2022/03/23 02:13:46;;;;;;;;;;;2.50;76.00;;;;;;5039220;28;19917;-71
2022/03/23 02:16:11;;;;;;;;;;;2.50;76.60;;;;;;5023972;28;19976;-71
2022/03/23 02:18:37;;;;;;;;;;;2.40;76.60;;;;;;5023850;28;19909;-71
2022/03/23 02:21:03;;;;;;;;;;;2.40;76.60;;;;;;5023575;28;20430;-71
2022/03/23 02:23:29;;;;;;;;;;;2.30;76.90;;;;;;5039259;28;19917;-72
2022/03/23 02:26:00;;;;;;;;;;;2.30;77.10;;;;;;5019989;28;19913;-74
2022/03/23 02:28:25;;;;;;;;;;;2.30;76.30;;;;;;5022239;28;19951;-73
2022/03/23 02:30:52;;;;;;;;;;;2.30;76.30;;;;;;5023295;28;19913;-73
2022/03/23 02:33:21;;;;;;;;;;;2.30;76.60;;;;;;5022367;28;19910;-73
2022/03/23 02:35:50;;;;;;;;;;;2.30;77.00;;;;;;5022928;28;20085;-73
2022/03/23 02:38:18;;;;;;;;;;;2.20;77.30;;;;;;5062224;22;20076;-65
2022/03/23 02:40:44;;;;;;;;;;;2.20;78.00;;;;;;5061561;28;20216;-65
2022/03/23 02:43:10;;;;;;;;;;;2.10;78.70;;;;;;5054118;28;20093;-65
2022/03/23 02:45:36;;;;;;;;;;;2.10;78.70;;;;;;5061836;28;19959;-65
2022/03/23 02:48:03;;;;;;;;;;;2.10;78.10;;;;;;5061992;28;19948;-65
2022/03/23 02:50:29;;;;;;;;;;;2.10;78.60;;;;;;5061780;28;19916;-64
2022/03/23 03:04:01;;;;;;;;;;;2.10;79.50;;;;;;5061764;28;20030;-65
2022/03/23 03:06:27;;;;;;;;;;;2.10;79.70;;;;;;5061910;28;20127;-65
2022/03/23 03:08:53;;;;;;;;;;;2.10;79.20;;;;;;5063117;28;19915;-65
2022/03/23 03:11:19;;;;;;;;;;;2.00;78.90;;;;;;5062341;28;19983;-65
2022/03/23 03:13:48;;;;;;;;;;;1.90;79.20;;;;;;5061665;28;19973;-65
2022/03/23 03:16:13;;;;;;;;;;;1.90;79.20;;;;;;5061644;28;19947;-65
2022/03/23 03:18:39;;;;;;;;;;;1.80;79.50;;;;;;5061499;28;19908;-65
2022/03/23 03:21:06;;;;;;;;;;;1.80;79.30;;;;;;5061553;28;20098;-65
2022/03/23 03:23:33;;;;;;;;;;;1.90;79.00;;;;;;5061304;28;19915;-64
2022/03/23 03:26:01;;;;;;;;;;;1.90;79.50;;;;;;5061506;28;20116;-65
2022/03/23 03:28:28;;;;;;;;;;;1.90;79.00;;;;;;5060385;28;19974;-65
2022/03/23 03:30:53;;;;;;;;;;;1.90;78.60;;;;;;5061215;28;19908;-65
2022/03/23 03:33:19;;;;;;;;;;;1.80;78.90;;;;;;5061342;28;19915;-65
2022/03/23 03:35:45;;;;;;;;;;;1.80;79.50;;;;;;5061552;28;19954;-65
2022/03/23 03:38:11;;;;;;;;;;;1.80;79.30;;;;;;5060945;28;19925;-65
2022/03/23 03:40:36;;;;;;;;;;;1.80;79.50;;;;;;5061110;28;19924;-65
2022/03/23 03:43:02;;;;;;;;;;;1.70;79.70;;;;;;5060675;28;19979;-65
2022/03/23 03:45:28;;;;;;;;;;;1.70;79.80;;;;;;5061851;28;20155;-66
2022/03/23 03:47:54;;;;;;;;;;;1.70;79.10;;;;;;5065255;28;19947;-65
2022/03/23 03:50:19;;;;;;;;;;;1.60;79.70;;;;;;5065339;28;20159;-65
2022/03/23 03:52:45;;;;;;;;;;;1.50;79.90;;;;;;5064961;28;19996;-65
2022/03/23 03:55:11;;;;;;;;;;;1.40;80.20;;;;;;5065290;28;19908;-65
2022/03/23 03:57:36;;;;;;;;;;;1.40;80.30;;;;;;5065370;28;19916;-66
2022/03/23 04:00:04;;;;;;;;;;;1.40;80.10;;;;;;5065227;28;19963;-65
2022/03/23 04:02:29;;;;;;;;;;;1.50;80.10;;;;;;5064978;28;20223;-66
2022/03/23 04:04:55;;;;;;;;;;;1.30;80.90;;;;;;5047502;28;20008;-65
2022/03/23 04:07:21;;;;;;;;;;;1.30;81.20;;;;;;5064854;28;19912;-65
2022/03/23 04:09:46;;;;;;;;;;;1.20;81.50;;;;;;5065300;28;19939;-66
2022/03/23 04:12:12;;;;;;;;;;;1.10;82.10;;;;;;5064850;28;19920;-65
2022/03/23 04:14:38;;;;;;;;;;;1.10;82.40;;;;;;5065263;28;19909;-64
2022/03/23 04:17:04;;;;;;;;;;;1.10;81.90;;;;;;5065151;28;19915;-65
2022/03/23 04:19:30;;;;;;;;;;;1.10;81.80;;;;;;5065177;28;20116;-65
2022/03/23 04:21:56;;;;;;;;;;;1.10;82.40;;;;;;5064452;28;19909;-64
2022/03/23 04:24:21;;;;;;;;;;;1.00;82.10;;;;;;5064349;28;20064;-65
2022/03/23 04:26:47;;;;;;;;;;;0.90;83.00;;;;;;5064543;28;19921;-65
2022/03/23 04:29:13;;;;;;;;;;;0.90;82.70;;;;;;5064574;28;19917;-65
2022/03/23 04:31:38;;;;;;;;;;;0.90;82.80;;;;;;5064175;28;19923;-65
2022/03/23 04:34:04;;;;;;;;;;;0.90;83.10;;;;;;5064350;28;19920;-65
2022/03/23 04:36:30;;;;;;;;;;;0.90;83.30;;;;;;5064400;28;19912;-64
2022/03/23 04:38:55;;;;;;;;;;;0.90;83.70;;;;;;5046041;28;19919;-64
2022/03/23 04:41:21;;;;;;;;;;;1.00;83.50;;;;;;5064134;28;19960;-64
2022/03/23 04:43:47;;;;;;;;;;;1.10;83.80;;;;;;5063685;28;20190;-64
2022/03/23 04:46:13;;;;;;;;;;;1.20;84.60;;;;;;5064122;28;20251;-64
2022/03/23 04:48:39;;;;;;;;;;;1.20;85.00;;;;;;5064414;28;19916;-65
2022/03/23 04:51:05;;;;;;;;;;;1.20;85.80;;;;;;5063895;28;20097;-64
2022/03/23 04:53:31;;;;;;;;;;;1.20;85.60;;;;;;5064155;28;19908;-64
2022/03/23 04:55:56;;;;;;;;;;;1.10;86.30;;;;;;5064109;28;19920;-65
2022/03/23 04:58:22;;;;;;;;;;;1.10;86.60;;;;;;5045047;28;20151;-65
2022/03/23 05:00:48;;;;;;;;;;;1.10;86.60;;;;;;5063791;28;19917;-65
2022/03/23 05:03:14;;;;;;;;;;;1.10;85.80;;;;;;5063750;28;19909;-63
2022/03/23 05:05:40;;;;;;;;;;;1.10;85.30;;;;;;5043831;28;19921;-65
2022/03/23 05:08:05;;;;;;;;;;;1.10;84.60;;;;;;5043575;28;19939;-64
2022/03/23 05:10:31;;;;;;;;;;;1.10;85.10;;;;;;5042625;28;19951;-64
2022/03/23 05:12:57;;;;;;;;;;;1.10;85.30;;;;;;5052547;28;19916;-64
2022/03/23 05:15:23;;;;;;;;;;;1.00;85.50;;;;;;5063559;28;19989;-64
2022/03/23 05:17:49;;;;;;;;;;;1.00;85.30;;;;;;5063626;28;19988;-64
2022/03/23 05:20:15;;;;;;;;;;;1.00;85.40;;;;;;5063674;28;20227;-65
2022/03/23 05:22:40;;;;;;;;;;;0.90;85.70;;;;;;5063225;28;19909;-64
2022/03/23 05:25:07;;;;;;;;;;;1.00;86.00;;;;;;5063527;28;19988;-65
2022/03/23 05:27:37;;;;;;;;;;;1.10;86.60;;;;;;5063618;28;19917;-64
2022/03/23 05:30:04;;;;;;;;;;;1.20;87.30;;;;;;5063713;28;19917;-64
2022/03/23 05:32:30;;;;;;;;;;;1.20;87.30;;;;;;5063087;28;19983;-64
2022/03/23 05:34:55;;;;;;;;;;;1.20;88.40;;;;;;5063314;28;20123;-64
2022/03/23 05:37:22;;;;;;;;;;;1.10;88.70;;;;;;5062663;28;20105;-64
2022/03/23 05:39:48;;;;;;;;;;;1.10;88.90;;;;;;5063260;28;19923;-63
2022/03/23 05:42:13;;;;;;;;;;;1.10;88.70;;;;;;5062362;28;19909;-64
2022/03/23 05:44:40;;;;;;;;;;;1.20;88.50;;;;;;5062979;28;19913;-64
2022/03/23 05:47:05;;;;;;;;;;;1.40;87.40;;;;;;5062977;28;19955;-64
2022/03/23 05:49:31;;;;;;;;;;;1.50;86.90;;;;;;5063129;28;19999;-64
2022/03/23 05:51:57;;;;;;;;;;;1.50;86.60;;;;;;5062712;28;19917;-64
2022/03/23 05:54:23;;;;;;;;;;;1.50;86.90;;;;;;5028424;28;19980;-63
2022/03/23 05:56:52;;;;;;;;;;;1.40;87.30;;;;;;5062822;28;19908;-64
2022/03/23 05:59:18;;;;;;;;;;;1.40;87.40;;;;;;5062717;28;19916;-64
2022/03/23 06:01:43;;;;;;;;;;;1.40;87.60;;;;;;5044707;28;19962;-65
2022/03/23 06:04:09;;;;;;;;;;;1.50;87.10;;;;;;5062607;28;20215;-64
2022/03/23 06:06:35;;;;;;;;;;;1.70;85.40;;;;;;5062627;28;19909;-64
2022/03/23 06:09:01;;;;;;;;;;;1.80;84.40;;;;;;5062127;28;20232;-64
2022/03/23 06:11:26;;;;;;;;;;;1.90;84.30;;;;;;5062197;28;20004;-63
2022/03/23 06:13:52;;;;;;;;;;;1.90;84.10;;;;;;5062367;28;19921;-64
2022/03/23 06:16:18;;;;;;;;;;;2.00;83.60;;;;;;5062331;28;19916;-64
2022/03/23 06:18:43;;;;;;;;;;;2.00;83.20;;;;;;5062314;28;19947;-65
2022/03/23 06:21:09;;;;;;;;;;;2.00;83.10;;;;;;5061964;28;19908;-64
2022/03/23 06:23:35;;;;;;;;;;;2.10;83.00;;;;;;5061718;28;20129;-64
2022/03/23 06:26:01;;;;;;;;;;;2.10;82.80;;;;;;5062004;28;19909;-63
2022/03/23 06:28:26;;;;;;;;;;;2.10;83.40;;;;;;5061515;28;19951;-63
2022/03/23 06:30:52;;;;;;;;;;;2.10;83.30;;;;;;5061380;28;19917;-64
2022/03/23 06:33:19;;;;;;;;;;;2.10;83.90;;;;;;5061659;28;19944;-64
2022/03/23 06:35:45;;;;;;;;;;;2.10;84.10;;;;;;5061695;28;20366;-64
2022/03/23 06:38:12;;;;;;;;;;;2.30;82.90;;;;;;5061403;28;19913;-63
2022/03/23 06:40:37;;;;;;;;;;;2.40;81.60;;;;;;5061653;28;19936;-64
2022/03/23 06:43:03;;;;;;;;;;;2.60;80.90;;;;;;5061072;28;20170;-64
2022/03/23 06:45:29;;;;;;;;;;;2.70;80.20;;;;;;5058289;28;19925;-64
2022/03/23 06:47:55;;;;;;;;;;;2.80;79.50;;;;;;5053653;28;20027;-65
2022/03/23 06:50:21;;;;;;;;;;;2.90;79.30;;;;;;5051304;28;19967;-65
2022/03/23 06:52:47;;;;;;;;;;;3.00;78.50;;;;;;5058867;28;19917;-62
2022/03/23 06:55:12;;;;;;;;;;;3.00;77.90;;;;;;5057023;28;19921;-64
2022/03/23 06:57:38;;;;;;;;;;;3.10;77.70;;;;;;5055473;28;19912;-63
2022/03/23 07:00:12;;;;;;;;;;;3.10;77.30;;;;;;5061124;28;20200;-68
2022/03/23 07:02:42;;;;;;;;;;;3.10;78.70;;;;;;5060929;28;19915;-67
2022/03/23 07:05:08;;;;;;;;;;;3.00;78.50;;;;;;5061096;28;19939;-66
2022/03/23 07:07:35;;;;;;;;;;;3.00;78.00;;;;;;5060075;28;19915;-68
2022/03/23 07:10:02;;;;;;;;;;;3.20;77.90;;;;;;5061497;28;19908;-68
2022/03/23 07:12:28;;;;;;;;;;;3.30;76.90;;;;;;5060863;28;19916;-69
2022/03/23 07:14:53;;;;;;;;;;;3.50;76.30;;;;;;5061332;28;20265;-67
2022/03/23 07:17:19;;;;;;;;;;;3.50;75.90;;;;;;5060913;28;19947;-63
2022/03/23 07:19:46;;;;;;;;;;;3.60;76.10;;;;;;5061040;28;19916;-64
2022/03/23 07:22:11;;;;;;;;;;;3.70;74.60;;;;;;5060818;28;19991;-63
2022/03/23 07:24:37;;;;;;;;;;;3.90;74.60;;;;;;5043074;28;19921;-62
2022/03/23 07:27:03;;;;;;;;;;;4.00;74.60;;;;;;5061273;28;20207;-62
2022/03/23 07:29:29;;;;;;;;;;;4.00;74.20;;;;;;5060822;28;19921;-62
2022/03/23 07:31:55;;;;;;;;;;;4.10;73.00;;;;;;5060923;28;20212;-63
2022/03/23 07:34:21;;;;;;;;;;;4.20;73.70;;;;;;5061053;28;19909;-63
2022/03/23 07:36:47;;;;;;;;;;;4.30;72.40;;;;;;5060348;28;20127;-63
2022/03/23 07:39:21;;;;;;;;;;;4.40;73.20;;;;;;5060816;28;19909;-63
2022/03/23 07:41:50;;;;;;;;;;;4.50;73.10;;;;;;5060778;28;19915;-63
2022/03/23 07:44:19;;;;;;;;;;;4.60;73.30;;;;;;5060073;28;20092;-63
2022/03/23 07:46:45;;;;;;;;;;;4.60;72.90;;;;;;5061203;28;20167;-63
2022/03/23 07:49:12;;;;;;;;;;;4.70;72.10;;;;;;5061934;28;20200;-63
2022/03/23 07:51:39;;;;;;;;;;;4.80;69.80;;;;;;5061628;28;20157;-65
2022/03/23 07:54:05;;;;;;;;;;;4.90;69.50;;;;;;5062062;28;19931;-64
2022/03/23 07:56:30;;;;;;;;;;;5.00;68.80;;;;;;5043598;28;20176;-63
2022/03/23 07:58:56;;;;;;;;;;;5.00;70.20;;;;;;5060803;28;19936;-63
2022/03/23 08:01:22;;;;;;;;;;;5.10;69.70;;;;;;5060850;28;20115;-63
2022/03/23 08:03:48;;;;;;;;;;;5.30;68.50;;;;;;5060869;28;19927;-63
2022/03/23 08:06:13;;;;;;;;;;;5.50;68.00;;;;;;5058756;28;19912;-62
2022/03/23 08:08:39;;;;;;;;;;;5.50;67.50;;;;;;5060860;28;19928;-62
2022/03/23 08:11:05;;;;;;;;;;;5.60;66.90;;;;;;5060727;28;19916;-63
2022/03/23 08:13:30;;;;;;;;;;;5.70;68.50;;;;;;5060508;28;19908;-63
2022/03/23 08:15:56;;;;;;;;;;;5.60;69.40;;;;;;5060695;28;19916;-63
2022/03/23 08:18:22;;;;;;;;;;;5.70;69.50;;;;;;5060341;28;20054;-64
2022/03/23 08:20:48;;;;;;;;;;;5.70;68.80;;;;;;5060869;28;19952;-63
2022/03/23 08:23:15;;;;;;;;;;;5.80;69.00;;;;;;5060468;28;19984;-65
2022/03/23 08:25:42;;;;;;;;;;;5.80;68.80;;;;;;5060433;28;20192;-65
2022/03/23 08:28:09;;;;;;;;;;;5.90;68.30;;;;;;5060124;28;20058;-65
2022/03/23 08:30:35;;;;;;;;;;;6.00;67.60;;;;;;5059902;28;19928;-65
2022/03/23 08:33:02;;;;;;;;;;;6.10;67.50;;;;;;5063590;28;19916;-65
2022/03/23 08:35:30;;;;;;;;;;;6.20;67.60;;;;;;5063974;28;19920;-65
2022/03/23 08:37:56;;;;;;;;;;;6.30;67.50;;;;;;5061967;28;19912;-66
2022/03/23 08:40:21;;;;;;;;;;;6.40;66.90;;;;;;5064132;28;19908;-65
2022/03/23 08:42:47;;;;;;;;;;;6.50;66.60;;;;;;5063648;28;20216;-62
2022/03/23 08:45:13;;;;;;;;;;;6.60;66.30;;;;;;5062743;28;20018;-62
2022/03/23 08:47:39;;;;;;;;;;;6.80;65.20;;;;;;5063667;28;19970;-62
2022/03/23 08:50:09;;;;;;;;;;;6.80;65.10;;;;;;5063958;28;20011;-62
2022/03/23 08:52:35;;;;;;;;;;;6.90;65.20;;;;;;5063698;28;19909;-63
2022/03/23 08:55:07;;;;;;;;;;;7.00;65.10;;;;;;5063520;28;19947;-64
2022/03/23 08:57:32;;;;;;;;;;;7.10;65.70;;;;;;5063783;28;19917;-65
2022/03/23 08:59:58;;;;;;;;;;;7.20;64.50;;;;;;5063437;28;19939;-65
2022/03/23 09:02:24;;;;;;;;;;;7.30;64.50;;;;;;5063390;28;19909;-63
2022/03/23 09:04:49;;;;;;;;;;;7.40;64.40;;;;;;5063636;28;20012;-64
2022/03/23 09:07:15;;;;;;;;;;;7.60;64.00;;;;;;5062439;28;19917;-64
2022/03/23 09:09:41;;;;;;;;;;;7.70;62.90;;;;;;5063202;28;19976;-65
2022/03/23 09:12:07;;;;;;;;;;;7.80;62.40;;;;;;5063612;28;20204;-64
2022/03/23 09:14:33;;;;;;;;;;;7.90;61.90;;;;;;5062968;28;19928;-64
2022/03/23 09:16:58;;;;;;;;;;;8.10;61.20;;;;;;5063214;28;19908;-65
2022/03/23 09:19:24;;;;;;;;;;;8.20;60.20;;;;;;5063186;28;20097;-66
2022/03/23 09:21:50;;;;;;;;;;;8.30;60.60;;;;;;5063294;28;19908;-64
2022/03/23 09:24:19;;;;;;;;;;;8.40;60.10;;;;;;5063425;28;19936;-66
2022/03/23 09:26:44;;;;;;;;;;;8.60;59.10;;;;;;5063490;28;19909;-66
2022/03/23 09:29:10;;;;;;;;;;;8.80;58.60;;;;;;5062950;28;19916;-66
2022/03/23 09:31:36;;;;;;;;;;;8.90;57.40;;;;;;5062897;28;20175;-66
2022/03/23 09:34:02;;;;;;;;;;;9.00;56.90;;;;;;5063295;28;19909;-67
2022/03/23 09:39:13;;;;;;;;;;;9.30;55.40;;;;;;5063415;28;19936;-68
2022/03/23 09:41:39;;;;;;;;;;;9.30;54.60;;;;;;5062779;28;19909;-66
2022/03/23 09:44:05;;;;;;;;;;;9.40;54.70;;;;;;5062118;28;20104;-67
2022/03/23 09:46:32;;;;;;;;;;;9.50;53.80;;;;;;5063036;28;19975;-66
2022/03/23 09:48:58;;;;;;;;;;;9.70;52.20;;;;;;5062855;28;19940;-65
2022/03/23 09:51:24;;;;;;;;;;;9.80;51.40;;;;;;5062754;28;19913;-65
2022/03/23 09:53:50;;;;;;;;;;;9.90;51.00;;;;;;5045272;28;19959;-64
2022/03/23 09:56:16;;;;;;;;;;;10.00;51.50;;;;;;5028425;28;20085;-65
2022/03/23 09:58:42;;;;;;;;;;;10.00;51.40;;;;;;5062787;28;19909;-65
2022/03/23 10:01:20;;;;;;;;;;;10.10;50.40;;;;;;5062330;28;19923;-65
2022/03/23 10:04:06;;;;;;;;;;;10.30;48.30;;;;;;5062376;28;19963;-65
2022/03/23 10:07:13;;;;;;;;;;;10.60;47.00;;;;;;5060667;28;19920;-65
2022/03/23 10:10:16;;;;;;;;;;;10.90;44.10;;;;;;5017540;28;19992;-65
2022/03/23 10:13:03;;;;;;;;;;;11.20;43.50;;;;;;5062522;28;20111;-65
2022/03/23 10:16:07;;;;;;;;;;;11.50;42.00;;;;;;5044233;28;19909;-65
2022/03/23 10:18:49;;;;;;;;;;;11.80;42.30;;;;;;5061823;28;19963;-64
2022/03/23 10:21:15;;;;;;;;;;;12.00;42.60;;;;;;5060734;28;20204;-64
2022/03/23 10:24:10;;;;;;;;;;;12.10;39.40;;;;;;5062270;28;19919;-64
2022/03/23 10:26:37;;;;;;;;;;;12.30;40.00;;;;;;5049242;28;19909;-64
2022/03/23 10:29:03;;;;;;;;;;;12.40;39.30;;;;;;5061992;28;19942;-65
2022/03/23 10:31:29;;;;;;;;;;;12.60;39.90;;;;;;5061873;28;19908;-64
2022/03/23 10:34:08;;;;;;;;;;;12.70;39.40;;;;;;5062038;28;19908;-64
2022/03/23 10:36:40;;;;;;;;;;;12.90;37.60;;;;;;5062156;28;19976;-64
2022/03/23 10:39:10;;;;;;;;;;;13.10;36.70;;;;;;5062033;28;19955;-64
2022/03/23 10:41:35;;;;;;;;;;;13.20;36.70;;;;;;5044014;28;19909;-64
2022/03/23 10:44:01;;;;;;;;;;;13.50;36.90;;;;;;5061003;28;20007;-64
2022/03/23 10:46:27;;;;;;;;;;;13.80;35.50;;;;;;5061865;28;19920;-64
2022/03/23 10:48:59;;;;;;;;;;;14.00;35.40;;;;;;5061834;28;19927;-64
2022/03/23 10:51:32;;;;;;;;;;;14.20;36.30;;;;;;5061130;28;19921;-64
2022/03/23 10:53:58;;;;;;;;;;;14.40;34.20;;;;;;5061863;28;19924;-64
2022/03/23 10:56:36;;;;;;;;;;;14.60;35.40;;;;;;5060784;28;19975;-65
2022/03/23 10:59:25;;;;;;;;;;;14.80;33.90;;;;;;5043698;28;19944;-64
2022/03/23 11:02:03;;;;;;;;;;;15.00;34.20;;;;;;5061548;28;19909;-64
2022/03/23 11:04:51;;;;;;;;;;;15.40;35.20;;;;;;5061547;28;19916;-64
2022/03/23 11:07:22;;;;;;;;;;;15.60;31.90;;;;;;5060564;28;19954;-64
2022/03/23 11:18:08;;;;;;;;;;;16.70;29.90;;;;;;5058786;28;19923;-64
2022/03/23 11:20:47;;;;;;;;;;;16.90;29.00;;;;;;5060880;28;19915;-65
2022/03/23 11:23:30;;;;;;;;;;;17.20;29.30;;;;;;5060583;28;19923;-65
2022/03/23 11:26:05;;;;;;;;;;;17.40;28.60;;;;;;5061277;28;19919;-64
2022/03/23 11:28:34;;;;;;;;;;;17.90;28.30;;;;;;5060937;28;20125;-65
2022/03/23 11:31:04;;;;;;;;;;;18.40;28.60;;;;;;5059838;28;20213;-65
2022/03/23 11:33:32;;;;;;;;;;;18.90;28.60;;;;;;5043781;28;19952;-65
2022/03/23 11:35:58;;;;;;;;;;;19.30;28.40;;;;;;5060973;28;19917;-65
2022/03/23 11:38:28;;;;;;;;;;;19.60;27.30;;;;;;5059991;28;19916;-65
2022/03/23 11:40:54;;;;;;;;;;;19.90;28.10;;;;;;5060710;28;19955;-65
2022/03/23 11:43:21;;;;;;;;;;;20.50;26.80;;;;;;5060835;28;19909;-67
2022/03/23 11:45:48;;;;;;;;;;;20.90;26.20;;;;;;5059478;28;19969;-64
2022/03/23 11:48:58;;;;;;;;;;;21.60;25.50;;;;;;5060244;28;19940;-65
2022/03/23 11:51:45;;;;;;;;;;;22.30;24.60;;;;;;5028882;28;19940;-66
2022/03/23 11:54:18;;;;;;;;;;;24.00;23.90;;;;;;5060834;28;19915;-64
2022/03/23 11:56:47;;;;;;;;;;;25.90;23.10;;;;;;5026604;28;19920;-65
2022/03/23 11:59:19;;;;;;;;;;;27.70;22.40;;;;;;5060761;28;20224;-66
2022/03/23 12:01:45;;;;;;;;;;;29.30;21.50;;;;;;5060280;28;19916;-64
2022/03/23 12:04:13;;;;;;;;;;;30.50;20.70;;;;;;5060928;28;19913;-64
2022/03/23 12:06:42;;;;;;;;;;;32.00;20.40;;;;;;5060953;28;20008;-64
2022/03/23 12:09:08;;;;;;;;;;;33.00;19.30;;;;;;5063019;28;20067;-64
2022/03/23 12:11:45;;;;;;;;;;;32.60;19.30;;;;;;5064752;28;20012;-64
2022/03/23 12:14:21;;;;;;;;;;;33.70;18.90;;;;;;5064673;28;20099;-64
2022/03/23 12:16:50;;;;;;;;;;;33.90;19.30;;;;;;5064537;28;20224;-66
2022/03/23 12:19:28;;;;;;;;;;;34.80;18.90;;;;;;5064777;28;19976;-64
2022/03/23 12:22:05;;;;;;;;;;;35.70;18.80;;;;;;5064221;28;20175;-64
2022/03/23 12:25:18;;;;;;;;;;;36.40;19.20;;;;;;5064662;28;19913;-65
2022/03/23 12:28:16;;;;;;;;;;;37.20;19.10;;;;;;4983394;28;19981;-64
2022/03/23 12:30:57;;;;;;;;;;;37.50;19.00;;;;;;4983104;28;19910;-65
2022/03/23 12:33:26;;;;;;;;;;;38.20;18.70;;;;;;5034054;28;19984;-65
2022/03/23 12:35:52;;;;;;;;;;;39.80;17.50;;;;;;5064463;28;19909;-65
2022/03/23 12:38:25;;;;;;;;;;;38.40;17.50;;;;;;5063541;28;19927;-66
2022/03/23 12:40:51;;;;;;;;;;;38.40;18.10;;;;;;5046155;28;19909;-66
2022/03/23 12:43:42;;;;;;;;;;;38.80;18.60;;;;;;5046696;28;19908;-65
2022/03/23 12:46:18;;;;;;;;;;;38.80;18.50;;;;;;5044022;28;19928;-66
2022/03/23 13:00:25;;;;;;;;;;;39.00;18.20;;;;;;5043978;28;19988;-66
2022/03/23 13:03:19;;;;;;;;;;;38.70;17.60;;;;;;5043473;28;19909;-65
2022/03/23 13:05:58;;;;;;;;;;;38.70;17.60;;;;;;5017939;28;19913;-66
2022/03/23 13:08:30;;;;;;;;;;;39.40;17.60;;;;;;5056799;28;19919;-66
2022/03/23 13:11:01;;;;;;;;;;;39.20;17.50;;;;;;5063373;28;19920;-66
2022/03/23 13:13:30;;;;;;;;;;;39.70;17.50;;;;;;5063183;28;19913;-66
2022/03/23 13:15:56;;;;;;;;;;;40.40;17.40;;;;;;5062819;28;19919;-65
2022/03/23 13:18:26;;;;;;;;;;;40.30;17.40;;;;;;5062057;28;19916;-67
2022/03/23 13:20:52;;;;;;;;;;;40.10;17.50;;;;;;5063228;28;19966;-66
2022/03/23 13:23:19;;;;;;;;;;;39.60;17.20;;;;;;5063260;28;19954;-66
2022/03/23 13:26:04;;;;;;;;;;;39.70;17.50;;;;;;5063108;28;20097;-66
2022/03/23 13:28:32;;;;;;;;;;;39.90;17.30;;;;;;5060753;28;19940;-66
2022/03/23 13:31:02;;;;;;;;;;;39.20;17.80;;;;;;5063212;28;19924;-65
2022/03/23 13:33:47;;;;;;;;;;;40.00;17.70;;;;;;5063593;28;20008;-66
2022/03/23 13:36:15;;;;;;;;;;;40.10;17.30;;;;;;5063488;28;19978;-66
2022/03/23 13:38:49;;;;;;;;;;;39.90;17.10;;;;;;5062477;28;19913;-66
2022/03/23 13:44:01;;;;;;;;;;;39.80;17.40;;;;;;5063102;28;19963;-66
2022/03/23 13:46:28;;;;;;;;;;;39.60;17.80;;;;;;5062024;28;19916;-66
2022/03/23 13:49:05;;;;;;;;;;;40.00;17.40;;;;;;5062605;28;19912;-66
2022/03/23 13:51:32;;;;;;;;;;;39.30;17.60;;;;;;5060050;28;19928;-65
2022/03/23 13:53:58;;;;;;;;;;;40.50;17.20;;;;;;5063363;28;20015;-65
2022/03/23 13:56:26;;;;;;;;;;;40.30;17.20;;;;;;5063002;28;19912;-65
2022/03/23 13:58:52;;;;;;;;;;;40.90;17.40;;;;;;5045000;28;19947;-65
2022/03/23 14:01:18;;;;;;;;;;;40.30;17.70;;;;;;5062242;28;19916;-66
2022/03/23 14:03:44;;;;;;;;;;;39.90;17.50;;;;;;5062532;28;19999;-65
2022/03/23 14:06:14;;;;;;;;;;;40.40;16.90;;;;;;5062968;28;19909;-65
2022/03/23 14:08:40;;;;;;;;;;;40.00;17.10;;;;;;5062679;28;19979;-65
2022/03/23 14:11:08;;;;;;;;;;;39.60;17.70;;;;;;5062413;28;19915;-65
2022/03/23 14:13:38;;;;;;;;;;;39.40;17.60;;;;;;5062179;28;19917;-66
2022/03/23 14:16:05;;;;;;;;;;;39.80;17.30;;;;;;5062270;28;19909;-65
2022/03/23 14:18:31;;;;;;;;;;;40.30;17.40;;;;;;5062275;28;19909;-66
2022/03/23 14:20:58;;;;;;;;;;;39.40;17.70;;;;;;5062265;28;19913;-66
2022/03/23 14:23:28;;;;;;;;;;;38.50;17.50;;;;;;5062434;28;19984;-65
2022/03/23 14:26:25;;;;;;;;;;;38.70;17.50;;;;;;5062364;28;19913;-66
2022/03/23 14:28:51;;;;;;;;;;;38.60;17.70;;;;;;5062470;28;19909;-65
2022/03/23 14:31:23;;;;;;;;;;;38.50;17.60;;;;;;5061933;28;20124;-65
2022/03/23 14:34:05;;;;;;;;;;;38.00;17.70;;;;;;5044400;28;20232;-65
2022/03/23 14:36:31;;;;;;;;;;;38.30;17.60;;;;;;5062187;28;19909;-65
2022/03/23 14:38:57;;;;;;;;;;;37.70;18.20;;;;;;5061963;28;19996;-65
2022/03/23 14:41:26;;;;;;;;;;;38.10;18.00;;;;;;5062004;28;19917;-65
2022/03/23 14:43:53;;;;;;;;;;;37.30;17.90;;;;;;5061878;28;19944;-65
2022/03/23 14:46:26;;;;;;;;;;;37.50;17.90;;;;;;5060920;28;19915;-65
2022/03/23 14:49:22;;;;;;;;;;;37.50;18.10;;;;;;5061741;28;20187;-65
2022/03/23 14:51:48;;;;;;;;;;;36.70;18.20;;;;;;5061902;28;19917;-64
2022/03/23 14:54:15;;;;;;;;;;;36.90;18.30;;;;;;5061921;28;19913;-65
2022/03/23 14:56:44;;;;;;;;;;;37.10;18.20;;;;;;5061924;28;19909;-65
2022/03/23 14:59:10;;;;;;;;;;;37.20;18.20;;;;;;5061743;28;19979;-65
2022/03/23 15:01:38;;;;;;;;;;;37.10;18.40;;;;;;5061154;28;19908;-65
2022/03/23 15:04:04;;;;;;;;;;;37.00;18.40;;;;;;5061443;28;20374;-65
2022/03/23 15:14:42;;;;;;;;;;;34.80;18.70;;;;;;5046517;28;20461;-64
2022/03/23 15:17:08;;;;;;;;;;;34.70;18.80;;;;;;5061315;28;19917;-64
2022/03/23 15:19:34;;;;;;;;;;;34.60;18.90;;;;;;5061221;28;19981;-64